createdAt,value
2022-08-12T00:03:23.250Z,975.9
2022-08-12T00:08:54.851Z,975.77
2022-08-12T00:14:26.445Z,975.95
2022-08-12T00:19:58.327Z,976.19
2022-08-12T00:26:24.891Z,976.61
2022-08-12T00:31:01.795Z,976.88
2022-08-12T00:36:38.864Z,977.02
2022-08-12T00:42:09.394Z,976.18
2022-08-12T00:47:41.206Z,975.97
2022-08-12T00:53:12.959Z,976.4
2022-08-12T00:58:44.727Z,976.77
2022-08-12T01:04:16.318Z,976.89
2022-08-12T01:09:48.282Z,977.08
2022-08-12T01:15:19.786Z,977.04
2022-08-12T01:20:51.539Z,977.09
2022-08-12T01:26:23.293Z,976.97
2022-08-12T01:31:55.109Z,976.82
2022-08-12T01:37:33.335Z,976.87
2022-08-12T01:43:05.062Z,976.28
2022-08-12T01:48:36.525Z,976.79
2022-08-12T01:54:08.267Z,977.15
2022-08-12T01:59:39.982Z,976.74
2022-08-12T02:05:11.723Z,976.89
2022-08-12T02:10:52.407Z,976.88
2022-08-12T02:16:15.126Z,976.66
2022-08-12T02:21:46.930Z,976.33
2022-08-12T02:27:18.602Z,976.63
2022-08-12T02:32:50.363Z,976.72
2022-08-12T02:38:26.805Z,976.54
2022-08-12T02:43:58.196Z,976.58
2022-08-12T02:49:29.840Z,976.39
2022-08-12T02:55:01.570Z,976.24
2022-08-12T03:00:33.271Z,976.0
2022-08-12T03:06:05.000Z,976.08
2022-08-12T03:11:48.693Z,975.99
2022-08-12T03:17:08.522Z,976.13
2022-08-12T03:22:40.797Z,976.07
2022-08-12T03:28:24.692Z,976.02
2022-08-12T03:34:03.155Z,976.16
2022-08-12T03:39:35.698Z,976.13
2022-08-12T03:44:51.514Z,976.05
2022-08-12T03:50:23.185Z,975.83
2022-08-12T03:55:54.812Z,976.08
2022-08-12T04:01:26.760Z,975.98
2022-08-12T04:06:58.325Z,975.74
2022-08-12T04:12:33.710Z,975.93
2022-08-12T04:18:08.511Z,976.18
2022-08-12T04:23:33.469Z,976.35
2022-08-12T04:29:05.253Z,976.38
2022-08-12T04:34:36.911Z,976.53
2022-08-12T04:40:13.013Z,976.19
2022-08-12T04:45:44.841Z,976.13
2022-08-12T04:51:16.590Z,975.78
2022-08-12T04:57:05.569Z,975.73
2022-08-12T05:02:23.467Z,975.61
2022-08-12T05:07:55.761Z,975.78
2022-08-12T05:13:23.379Z,976.17
2022-08-12T05:18:58.156Z,975.94
2022-08-12T05:24:26.954Z,977.02
2022-08-12T05:30:09.761Z,977.32
2022-08-12T05:35:30.378Z,977.99
2022-08-12T05:41:06.324Z,978.51
2022-08-12T05:46:38.054Z,979.27
2022-08-12T05:52:09.752Z,979.49
2022-08-12T05:57:41.550Z,979.77
2022-08-12T06:03:13.496Z,980.38
2022-08-12T06:08:44.838Z,980.94
2022-08-12T06:14:17.298Z,980.54
2022-08-12T06:20:34.530Z,981.21
2022-08-12T06:25:22.822Z,981.32
2022-08-12T06:31:27.081Z,981.93
2022-08-12T06:36:24.098Z,981.27
2022-08-12T06:42:33.925Z,982.2
2022-08-12T06:47:31.366Z,982.49
2022-08-12T06:53:03.065Z,981.92
2022-08-12T06:58:34.720Z,982.55
2022-08-12T07:04:38.593Z,982.51
2022-08-12T07:10:08.798Z,982.22
2022-08-12T07:15:10.009Z,982.69
2022-08-12T07:20:53.883Z,983.24
2022-08-12T07:26:13.576Z,982.98
2022-08-12T07:31:45.217Z,982.89
2022-08-12T07:37:17.118Z,983.14
2022-08-12T07:42:54.999Z,982.67
2022-08-12T07:48:26.903Z,982.84
2022-08-12T07:54:05.363Z,982.34
2022-08-12T07:59:30.520Z,982.44
2022-08-12T08:05:01.961Z,983.01
2022-08-12T08:10:33.961Z,982.62
2022-08-12T08:16:05.466Z,982.83
2022-08-12T08:21:37.621Z,982.29
2022-08-12T08:27:08.976Z,982.88
2022-08-12T08:32:41.139Z,981.69
2022-08-12T08:38:13.309Z,983.09
2022-08-12T08:43:48.910Z,982.72
2022-08-12T08:49:20.406Z,982.93
2022-08-12T08:54:52.097Z,982.67
2022-08-12T09:00:23.789Z,982.18
2022-08-12T09:06:05.974Z,982.48
2022-08-12T09:12:13.648Z,982.53
2022-08-12T09:16:59.841Z,980.63
2022-08-12T09:22:35.458Z,982.27
2022-08-12T09:34:36.447Z,981.7
2022-08-12T09:44:42.601Z,982.11
2022-08-12T09:50:21.340Z,982.85
2022-08-12T09:57:04.101Z,980.61
2022-08-12T09:58:08.566Z,980.61
2022-08-12T10:01:24.965Z,980.76
2022-08-12T10:06:58.211Z,980.55
2022-08-12T10:12:34.174Z,981.06
2022-08-12T10:18:08.329Z,981.39
2022-08-12T10:23:48.275Z,981.78
2022-08-12T10:30:39.074Z,979.75
2022-08-12T10:34:27.845Z,980.63
2022-08-12T10:40:20.462Z,980.3
2022-08-12T10:45:39.642Z,980.27
2022-08-12T10:52:37.882Z,979.22
2022-08-12T10:56:39.390Z,980.45
2022-08-12T11:08:47.195Z,980.9
2022-08-12T11:13:14.015Z,979.83
2022-08-12T11:18:56.960Z,979.98
2022-08-12T11:24:33.961Z,980.77
2022-08-12T11:30:32.085Z,979.56
2022-08-12T11:35:21.617Z,979.65
2022-08-12T11:40:53.949Z,979.77
2022-08-12T11:46:31.197Z,979.43
2022-08-12T11:52:01.219Z,980.13
2022-08-12T12:03:05.234Z,978.66
2022-08-12T12:08:51.687Z,978.65
2022-08-12T12:14:15.992Z,977.93
2022-08-12T12:19:47.154Z,978.68
2022-08-12T12:25:14.925Z,979.26
2022-08-12T12:30:55.519Z,979.62
2022-08-12T12:36:30.627Z,978.09
2022-08-12T12:43:00.423Z,977.48
2022-08-12T12:47:30.815Z,977.44
2022-08-12T12:52:59.373Z,977.76
2022-08-12T12:58:28.722Z,979.05
2022-08-12T13:04:03.500Z,977.69
2022-08-12T13:09:37.421Z,977.7
2022-08-12T13:15:03.934Z,977.86
2022-08-12T13:20:43.699Z,978.77
2022-08-12T13:26:15.127Z,978.29
2022-08-12T13:32:42.185Z,978.45
2022-08-12T13:37:12.275Z,978.22
2022-08-12T13:42:45.600Z,978.26
2022-08-12T13:48:20.655Z,978.56
2022-08-12T13:54:09.915Z,979.01
2022-08-12T13:59:26.998Z,978.43
2022-08-12T14:04:57.478Z,977.81
2022-08-12T14:10:29.939Z,977.13
2022-08-12T14:16:03.682Z,977.46
2022-08-12T14:22:05.045Z,977.68
2022-08-12T14:27:03.546Z,978.28
2022-08-12T14:32:36.147Z,978.69
2022-08-12T14:38:07.328Z,978.52
2022-08-12T14:45:00.195Z,978.51
2022-08-12T15:00:18.057Z,978.14
2022-08-12T15:06:52.979Z,976.76
2022-08-12T15:11:22.537Z,976.52
2022-08-12T15:16:53.713Z,977.42
2022-08-12T15:22:53.405Z,977.46
2022-08-12T15:28:22.805Z,977.71
2022-08-12T15:33:46.633Z,977.44
2022-08-12T15:38:59.495Z,977.14
2022-08-12T15:44:43.596Z,977.76
2022-08-12T15:50:26.858Z,977.88
2022-08-12T15:55:47.411Z,977.74
2022-08-12T16:01:12.892Z,976.79
2022-08-12T16:07:10.474Z,976.45
2022-08-12T16:12:26.147Z,976.07
2022-08-12T16:18:21.044Z,976.03
2022-08-12T16:23:58.425Z,975.99
2022-08-12T16:28:51.773Z,976.03
2022-08-12T16:34:57.622Z,976.5
2022-08-12T16:40:06.488Z,976.3
2022-08-12T16:46:33.634Z,976.03
2022-08-12T16:51:03.046Z,975.44
2022-08-12T16:56:38.533Z,975.7
2022-08-12T17:02:09.070Z,975.12
2022-08-12T17:07:44.786Z,975.2
2022-08-12T17:13:14.102Z,975.35
2022-08-12T17:19:03.143Z,975.6
2022-08-12T17:24:16.847Z,975.66
2022-08-12T17:30:06.341Z,975.57
2022-08-12T17:35:17.953Z,975.15
2022-08-12T17:40:48.928Z,975.56
2022-08-12T17:46:34.017Z,975.2
2022-08-12T17:52:03.673Z,975.5
2022-08-12T17:57:29.769Z,974.89
2022-08-12T18:03:02.099Z,975.37
2022-08-12T18:08:34.200Z,975.32
2022-08-12T18:14:03.344Z,975.39
2022-08-12T18:20:15.447Z,974.97
2022-08-12T18:26:13.637Z,974.65
2022-08-12T18:30:39.298Z,975.01
2022-08-12T18:36:14.184Z,974.94
2022-08-12T18:41:42.595Z,974.47
2022-08-12T18:47:15.186Z,974.23
2022-08-12T18:52:49.674Z,974.04
2022-08-12T18:58:31.127Z,974.2
2022-08-12T19:03:53.199Z,974.41
2022-08-12T19:09:59.925Z,974.23
2022-08-12T19:15:05.471Z,974.07
2022-08-12T19:20:28.459Z,974.26
2022-08-12T19:26:03.535Z,974.25
2022-08-12T19:31:59.835Z,974.57
2022-08-12T19:37:04.074Z,974.36
2022-08-12T19:42:44.987Z,974.55
2022-08-12T19:48:18.079Z,974.9
2022-08-12T19:53:59.091Z,974.98
2022-08-12T19:59:21.089Z,975.39
2022-08-12T20:06:08.601Z,975.15
2022-08-12T20:10:36.194Z,975.11
2022-08-12T20:15:50.604Z,974.92
2022-08-12T20:21:25.212Z,974.65
2022-08-12T20:26:53.437Z,974.72
2022-08-12T20:32:50.329Z,974.9
2022-08-12T20:38:28.386Z,974.64
2022-08-12T20:43:32.837Z,974.62
2022-08-12T20:49:00.696Z,974.38
2022-08-12T20:54:36.724Z,974.88
2022-08-12T21:00:08.218Z,975.21
2022-08-12T21:06:14.453Z,975.28
2022-08-12T21:11:11.648Z,975.24
2022-08-12T21:16:53.165Z,975.25
2022-08-12T21:22:25.514Z,975.01
2022-08-12T21:28:01.824Z,974.8
2022-08-12T21:33:20.397Z,974.64
2022-08-12T21:38:50.275Z,974.99
2022-08-12T21:46:01.882Z,974.77
2022-08-12T21:50:06.237Z,975.19
2022-08-12T21:55:30.557Z,975.49
2022-08-12T22:01:01.832Z,975.5
2022-08-12T22:06:44.979Z,975.41
2022-08-12T22:12:05.453Z,975.34
2022-08-12T22:17:57.438Z,975.08
2022-08-12T22:23:51.447Z,975.18
2022-08-12T22:28:40.464Z,975.26
2022-08-12T22:34:19.109Z,975.27
2022-08-12T22:39:45.139Z,975.39
2022-08-12T22:45:17.087Z,975.63
2022-08-12T22:50:51.344Z,975.07
2022-08-12T22:56:31.967Z,975.26
2022-08-12T23:02:03.363Z,975.51
2022-08-12T23:07:52.878Z,975.54
2022-08-12T23:12:59.303Z,975.23
2022-08-12T23:18:34.101Z,975.4
2022-08-12T23:24:11.967Z,975.25
2022-08-12T23:30:18.200Z,975.55
2022-08-12T23:35:07.437Z,975.75
2022-08-12T23:40:37.455Z,975.3
2022-08-12T23:46:09.272Z,975.99
2022-08-12T23:51:41.193Z,976.03
2022-08-12T23:57:17.485Z,976.02
